< < Back
Terminal Aerodrome Forecast


Current Version              Previous Versions:   1  2  3  4  5  6  7  8  9  

Terminal Aerodrome Forecast

746
FTUS42 KILM 092320
TAFFLO
TAF
KFLO 092320Z 1000/1024 28013G24KT P6SM BKN050 BKN110
     FM100100 28008KT P6SM SCT050 BKN100
     FM100800 27007KT P6SM SKC
     FM101300 27016G23KT P6SM SKC=

Latest METAR

443
SAUS70 KWBC 100900 RRE
MTRFLO
METAR KFLO 100853Z AUTO 24009KT 10SM SCT030 SCT060 00/M05 A2992 RMK AO2
SLP131 T00001050 53008


USA.gov is the U.S. government's official web portal to all federal, state and local government web resources and services.